sensor_id;sensor_type;location;lat;lon;timestamp;pressure;altitude;pressure_sealevel;temperature;humidity
60874;BME280;46715;40.642;-7.920;2022-11-18T00:01:22;95898.06;;;10.64;100.00
60874;BME280;46715;40.642;-7.920;2022-11-18T00:03:23;95905.31;;;10.67;100.00
60874;BME280;46715;40.642;-7.920;2022-11-18T00:05:24;95906.34;;;10.66;100.00
60874;BME280;46715;40.642;-7.920;2022-11-18T00:07:25;95906.63;;;10.64;100.00
60874;BME280;46715;40.642;-7.920;2022-11-18T00:09:27;95906.44;;;10.61;100.00
60874;BME280;46715;40.642;-7.920;2022-11-18T00:11:27;95898.31;;;10.62;100.00
60874;BME280;46715;40.642;-7.920;2022-11-18T00:13:48;95912.91;;;10.63;100.00
60874;BME280;46715;40.642;-7.920;2022-11-18T00:16:11;95908.25;;;10.60;100.00
60874;BME280;46715;40.642;-7.920;2022-11-18T00:18:12;95899.66;;;10.60;100.00
60874;BME280;46715;40.642;-7.920;2022-11-18T00:20:13;95905.63;;;10.60;100.00
60874;BME280;46715;40.642;-7.920;2022-11-18T00:22:14;95898.09;;;10.58;100.00
60874;BME280;46715;40.642;-7.920;2022-11-18T00:24:15;95894.19;;;10.56;100.00
60874;BME280;46715;40.642;-7.920;2022-11-18T00:26:16;95894.03;;;10.47;100.00
60874;BME280;46715;40.642;-7.920;2022-11-18T00:28:16;95893.47;;;10.50;100.00
60874;BME280;46715;40.642;-7.920;2022-11-18T00:30:17;95900.72;;;10.53;100.00
60874;BME280;46715;40.642;-7.920;2022-11-18T00:32:18;95904.59;;;10.61;100.00
60874;BME280;46715;40.642;-7.920;2022-11-18T00:34:19;95910.56;;;10.62;100.00
60874;BME280;46715;40.642;-7.920;2022-11-18T00:36:20;95908.50;;;10.58;100.00
60874;BME280;46715;40.642;-7.920;2022-11-18T00:38:21;95906.91;;;10.63;100.00
60874;BME280;46715;40.642;-7.920;2022-11-18T00:40:22;95912.91;;;10.63;100.00
60874;BME280;46715;40.642;-7.920;2022-11-18T00:42:23;95904.88;;;10.60;100.00
60874;BME280;46715;40.642;-7.920;2022-11-18T00:44:42;95909.81;;;10.61;100.00
60874;BME280;46715;40.642;-7.920;2022-11-18T00:46:44;95914.91;;;10.71;100.00
60874;BME280;46715;40.642;-7.920;2022-11-18T00:48:45;95907.44;;;10.65;100.00
60874;BME280;46715;40.642;-7.920;2022-11-18T00:50:52;95914.00;;;10.57;100.00
60874;BME280;46715;40.642;-7.920;2022-11-18T00:52:53;95912.72;;;10.54;100.00
60874;BME280;46715;40.642;-7.920;2022-11-18T00:54:53;95906.28;;;10.47;100.00
60874;BME280;46715;40.642;-7.920;2022-11-18T00:56:54;95900.84;;;10.43;100.00
60874;BME280;46715;40.642;-7.920;2022-11-18T00:58:55;95895.94;;;10.31;100.00
60874;BME280;46715;40.642;-7.920;2022-11-18T01:00:56;95891.56;;;10.27;100.00
60874;BME280;46715;40.642;-7.920;2022-11-18T01:02:57;95888.19;;;10.26;100.00
60874;BME280;46715;40.642;-7.920;2022-11-18T01:04:57;95881.44;;;10.20;100.00
60874;BME280;46715;40.642;-7.920;2022-11-18T01:06:58;95876.88;;;10.06;100.00
60874;BME280;46715;40.642;-7.920;2022-11-18T01:08:59;95888.06;;;10.07;100.00
60874;BME280;46715;40.642;-7.920;2022-11-18T01:11:03;95879.44;;;10.12;100.00
60874;BME280;46715;40.642;-7.920;2022-11-18T01:13:23;95891.94;;;10.15;100.00
60874;BME280;46715;40.642;-7.920;2022-11-18T01:15:26;95893.16;;;10.22;100.00
60874;BME280;46715;40.642;-7.920;2022-11-18T01:17:29;95894.38;;;10.35;100.00
60874;BME280;46715;40.642;-7.920;2022-11-18T01:19:31;95902.44;;;10.39;100.00
60874;BME280;46715;40.642;-7.920;2022-11-18T01:21:31;95896.50;;;10.28;100.00
60874;BME280;46715;40.642;-7.920;2022-11-18T01:23:33;95896.28;;;10.24;100.00
60874;BME280;46715;40.642;-7.920;2022-11-18T01:25:36;95899.09;;;10.28;100.00
60874;BME280;46715;40.642;-7.920;2022-11-18T01:27:37;95896.31;;;10.19;100.00
60874;BME280;46715;40.642;-7.920;2022-11-18T01:29:38;95899.75;;;10.15;100.00
60874;BME280;46715;40.642;-7.920;2022-11-18T01:31:39;95901.84;;;10.13;100.00
60874;BME280;46715;40.642;-7.920;2022-11-18T01:33:40;95900.53;;;10.10;100.00
60874;BME280;46715;40.642;-7.920;2022-11-18T01:35:42;95894.59;;;10.04;100.00
60874;BME280;46715;40.642;-7.920;2022-11-18T01:37:43;95890.97;;;10.00;100.00
60874;BME280;46715;40.642;-7.920;2022-11-18T01:39:44;95888.72;;;9.88;100.00
60874;BME280;46715;40.642;-7.920;2022-11-18T01:41:44;95893.44;;;9.81;100.00
60874;BME280;46715;40.642;-7.920;2022-11-18T01:43:59;95902.34;;;9.75;100.00
60874;BME280;46715;40.642;-7.920;2022-11-18T01:45:59;95899.72;;;9.80;100.00
60874;BME280;46715;40.642;-7.920;2022-11-18T01:48:05;95899.72;;;9.80;100.00
60874;BME280;46715;40.642;-7.920;2022-11-18T01:50:08;95900.25;;;9.77;100.00
60874;BME280;46715;40.642;-7.920;2022-11-18T01:52:10;95905.16;;;9.84;100.00
60874;BME280;46715;40.642;-7.920;2022-11-18T01:54:15;95892.66;;;9.86;100.00
60874;BME280;46715;40.642;-7.920;2022-11-18T01:56:23;95901.97;;;9.92;100.00
60874;BME280;46715;40.642;-7.920;2022-11-18T01:58:34;95900.38;;;9.96;100.00
60874;BME280;46715;40.642;-7.920;2022-11-18T02:00:36;95905.28;;;10.03;100.00
60874;BME280;46715;40.642;-7.920;2022-11-18T02:02:37;95896.06;;;10.16;100.00
60874;BME280;46715;40.642;-7.920;2022-11-18T02:04:40;95909.38;;;10.14;100.00
60874;BME280;46715;40.642;-7.920;2022-11-18T02:06:44;95899.78;;;10.10;100.00
60874;BME280;46715;40.642;-7.920;2022-11-18T02:08:46;95903.69;;;10.07;100.00
60874;BME280;46715;40.642;-7.920;2022-11-18T02:10:47;95895.34;;;10.10;100.00
60874;BME280;46715;40.642;-7.920;2022-11-18T02:12:50;95902.09;;;10.11;100.00
60874;BME280;46715;40.642;-7.920;2022-11-18T02:14:51;95901.34;;;10.11;100.00
60874;BME280;46715;40.642;-7.920;2022-11-18T02:29:25;95910.22;;;10.04;100.00
60874;BME280;46715;40.642;-7.920;2022-11-18T02:36:16;95904.78;;;10.01;100.00
60874;BME280;46715;40.642;-7.920;2022-11-18T02:38:26;95898.25;;;10.03;100.00
60874;BME280;46715;40.642;-7.920;2022-11-18T02:40:32;95907.13;;;10.02;100.00
60874;BME280;46715;40.642;-7.920;2022-11-18T02:42:35;95900.09;;;10.03;100.00
60874;BME280;46715;40.642;-7.920;2022-11-18T02:44:39;95901.69;;;9.99;100.00
60874;BME280;46715;40.642;-7.920;2022-11-18T02:46:46;95904.81;;;9.96;100.00
60874;BME280;46715;40.642;-7.920;2022-11-18T02:48:49;95908.22;;;9.91;100.00
60874;BME280;46715;40.642;-7.920;2022-11-18T02:50:51;95905.13;;;9.89;100.00
60874;BME280;46715;40.642;-7.920;2022-11-18T02:52:56;95909.56;;;9.88;100.00
60874;BME280;46715;40.642;-7.920;2022-11-18T02:54:59;95899.72;;;9.80;100.00
60874;BME280;46715;40.642;-7.920;2022-11-18T02:57:03;95910.59;;;9.87;100.00
60874;BME280;46715;40.642;-7.920;2022-11-18T02:59:05;95908.56;;;9.84;100.00
60874;BME280;46715;40.642;-7.920;2022-11-18T03:01:06;95912.19;;;9.83;100.00
60874;BME280;46715;40.642;-7.920;2022-11-18T03:03:31;95912.69;;;9.85;100.00
60874;BME280;46715;40.642;-7.920;2022-11-18T03:05:48;95914.28;;;9.81;100.00
60874;BME280;46715;40.642;-7.920;2022-11-18T03:08:01;95921.84;;;9.83;100.00
60874;BME280;46715;40.642;-7.920;2022-11-18T03:10:05;95925.47;;;9.87;100.00
60874;BME280;46715;40.642;-7.920;2022-11-18T03:16:19;95933.47;;;9.96;100.00
60874;BME280;46715;40.642;-7.920;2022-11-18T03:18:28;95936.81;;;10.01;100.00
60874;BME280;46715;40.642;-7.920;2022-11-18T03:20:35;95941.50;;;10.04;100.00
60874;BME280;46715;40.642;-7.920;2022-11-18T03:22:44;95942.50;;;10.09;100.00
60874;BME280;46715;40.642;-7.920;2022-11-18T03:25:00;95949.00;;;10.11;100.00
60874;BME280;46715;40.642;-7.920;2022-11-18T03:27:17;95939.91;;;10.09;100.00
60874;BME280;46715;40.642;-7.920;2022-11-18T03:29:20;95948.72;;;10.13;100.00
60874;BME280;46715;40.642;-7.920;2022-11-18T03:31:37;95953.44;;;10.11;100.00
60874;BME280;46715;40.642;-7.920;2022-11-18T03:33:44;95945.63;;;10.11;100.00
60874;BME280;46715;40.642;-7.920;2022-11-18T03:35:48;95956.53;;;10.13;100.00
60874;BME280;46715;40.642;-7.920;2022-11-18T03:37:55;95963.53;;;10.17;100.00
60874;BME280;46715;40.642;-7.920;2022-11-18T03:40:08;95959.16;;;10.13;100.00
60874;BME280;46715;40.642;-7.920;2022-11-18T03:42:18;95960.97;;;10.12;100.00
60874;BME280;46715;40.642;-7.920;2022-11-18T03:44:31;95966.38;;;10.21;100.00
60874;BME280;46715;40.642;-7.920;2022-11-18T03:46:51;95963.72;;;9.92;100.00
60874;BME280;46715;40.642;-7.920;2022-11-18T03:48:56;95963.03;;;9.70;100.00
60874;BME280;46715;40.642;-7.920;2022-11-18T03:51:04;95961.47;;;9.69;100.00
60874;BME280;46715;40.642;-7.920;2022-11-18T03:53:06;95965.94;;;9.59;100.00
60874;BME280;46715;40.642;-7.920;2022-11-18T03:55:37;95956.63;;;9.52;100.00
60874;BME280;46715;40.642;-7.920;2022-11-18T03:57:47;95970.19;;;9.39;100.00
60874;BME280;46715;40.642;-7.920;2022-11-18T04:00:12;95960.28;;;9.41;100.00
60874;BME280;46715;40.642;-7.920;2022-11-18T04:02:14;95972.81;;;9.39;100.00
60874;BME280;46715;40.642;-7.920;2022-11-18T04:04:16;95962.41;;;9.34;100.00
60874;BME280;46715;40.642;-7.920;2022-11-18T04:06:27;95961.63;;;9.38;100.00
60874;BME280;46715;40.642;-7.920;2022-11-18T04:08:31;95968.09;;;9.41;100.00
60874;BME280;46715;40.642;-7.920;2022-11-18T04:12:44;95975.41;;;9.39;100.00
60874;BME280;46715;40.642;-7.920;2022-11-18T04:14:46;95965.00;;;9.34;100.00
60874;BME280;46715;40.642;-7.920;2022-11-18T04:16:50;95968.91;;;9.31;100.00
60874;BME280;46715;40.642;-7.920;2022-11-18T04:18:52;95971.81;;;9.25;100.00
60874;BME280;46715;40.642;-7.920;2022-11-18T04:20:53;95972.59;;;9.20;100.00
60874;BME280;46715;40.642;-7.920;2022-11-18T04:22:54;95966.38;;;9.11;100.00
60874;BME280;46715;40.642;-7.920;2022-11-18T04:24:55;95974.47;;;9.04;100.00
60874;BME280;46715;40.642;-7.920;2022-11-18T04:26:56;95969.78;;;8.96;100.00
60874;BME280;46715;40.642;-7.920;2022-11-18T04:28:57;95968.00;;;8.86;100.00
60874;BME280;46715;40.642;-7.920;2022-11-18T04:30:58;95977.63;;;8.80;100.00
60874;BME280;46715;40.642;-7.920;2022-11-18T04:32:59;95979.72;;;8.73;100.00
60874;BME280;46715;40.642;-7.920;2022-11-18T04:34:59;95982.56;;;8.66;100.00
60874;BME280;46715;40.642;-7.920;2022-11-18T04:37:00;95979.97;;;8.56;100.00
60874;BME280;46715;40.642;-7.920;2022-11-18T04:39:01;95981.28;;;8.48;100.00
60874;BME280;46715;40.642;-7.920;2022-11-18T04:41:02;95976.84;;;8.49;100.00
60874;BME280;46715;40.642;-7.920;2022-11-18T04:43:03;95992.19;;;8.50;100.00
60874;BME280;46715;40.642;-7.920;2022-11-18T04:45:04;95988.81;;;8.55;100.00
60874;BME280;46715;40.642;-7.920;2022-11-18T04:47:05;95984.63;;;8.59;100.00
60874;BME280;46715;40.642;-7.920;2022-11-18T04:49:12;95989.84;;;8.64;100.00
60874;BME280;46715;40.642;-7.920;2022-11-18T04:51:13;95992.72;;;8.68;100.00
60874;BME280;46715;40.642;-7.920;2022-11-18T04:53:14;95990.34;;;8.72;100.00
60874;BME280;46715;40.642;-7.920;2022-11-18T04:55:14;95999.72;;;8.78;100.00
60874;BME280;46715;40.642;-7.920;2022-11-18T04:57:15;96009.59;;;8.76;100.00
60874;BME280;46715;40.642;-7.920;2022-11-18T04:59:19;96005.94;;;8.77;100.00
60874;BME280;46715;40.642;-7.920;2022-11-18T05:01:21;96010.13;;;8.78;100.00
60874;BME280;46715;40.642;-7.920;2022-11-18T05:03:21;96008.56;;;8.77;100.00
60874;BME280;46715;40.642;-7.920;2022-11-18T05:05:22;96017.66;;;8.74;100.00
60874;BME280;46715;40.642;-7.920;2022-11-18T05:07:23;96016.09;;;8.68;100.00
60874;BME280;46715;40.642;-7.920;2022-11-18T05:09:24;96014.25;;;8.63;100.00
60874;BME280;46715;40.642;-7.920;2022-11-18T05:11:26;96024.16;;;8.66;100.00
60874;BME280;46715;40.642;-7.920;2022-11-18T05:13:46;96027.81;;;8.70;100.00
60874;BME280;46715;40.642;-7.920;2022-11-18T05:15:46;96035.59;;;8.70;100.00
60874;BME280;46715;40.642;-7.920;2022-11-18T05:17:48;96034.81;;;8.70;100.00
60874;BME280;46715;40.642;-7.920;2022-11-18T05:19:48;96031.44;;;8.64;100.00
60874;BME280;46715;40.642;-7.920;2022-11-18T05:21:50;96032.72;;;8.67;100.00
60874;BME280;46715;40.642;-7.920;2022-11-18T05:23:51;96038.47;;;8.69;100.00
60874;BME280;46715;40.642;-7.920;2022-11-18T05:25:51;96036.91;;;8.73;100.00
60874;BME280;46715;40.642;-7.920;2022-11-18T05:27:52;96035.59;;;8.70;100.00
60874;BME280;46715;40.642;-7.920;2022-11-18T05:29:53;96044.97;;;8.66;100.00
60874;BME280;46715;40.642;-7.920;2022-11-18T05:31:54;96037.16;;;8.61;100.00
60874;BME280;46715;40.642;-7.920;2022-11-18T05:33:55;96040.00;;;8.55;100.00
60874;BME280;46715;40.642;-7.920;2022-11-18T05:35:55;96044.66;;;8.47;100.00
60874;BME280;46715;40.642;-7.920;2022-11-18T05:37:56;96050.84;;;8.41;100.00
60874;BME280;46715;40.642;-7.920;2022-11-18T05:39:57;96044.13;;;8.40;100.00
60874;BME280;46715;40.642;-7.920;2022-11-18T05:41:58;96049.84;;;8.37;100.00
60874;BME280;46715;40.642;-7.920;2022-11-18T05:44:18;96048.78;;;8.33;100.00
60874;BME280;46715;40.642;-7.920;2022-11-18T05:46:18;96058.66;;;8.41;100.00
60874;BME280;46715;40.642;-7.920;2022-11-18T05:48:19;96066.50;;;8.46;100.00
60874;BME280;46715;40.642;-7.920;2022-11-18T05:50:20;96068.00;;;8.42;100.00
60874;BME280;46715;40.642;-7.920;2022-11-18T05:52:21;96069.31;;;8.40;100.00
60874;BME280;46715;40.642;-7.920;2022-11-18T05:54:22;96069.03;;;8.31;100.00
60874;BME280;46715;40.642;-7.920;2022-11-18T05:56:29;96069.81;;;8.26;100.00
60874;BME280;46715;40.642;-7.920;2022-11-18T05:58:32;96070.56;;;8.22;100.00
60874;BME280;46715;40.642;-7.920;2022-11-18T06:00:33;96067.19;;;8.21;100.00
60874;BME280;46715;40.642;-7.920;2022-11-18T06:02:34;96077.31;;;8.17;100.00
60874;BME280;46715;40.642;-7.920;2022-11-18T06:04:46;96074.19;;;8.15;100.00
60874;BME280;46715;40.642;-7.920;2022-11-18T06:06:50;96078.06;;;8.08;100.00
60874;BME280;46715;40.642;-7.920;2022-11-18T06:09:01;96082.47;;;8.07;100.00
60874;BME280;46715;40.642;-7.920;2022-11-18T06:11:04;96080.13;;;8.06;100.00
60874;BME280;46715;40.642;-7.920;2022-11-18T06:13:09;96084.25;;;7.96;100.00
60874;BME280;46715;40.642;-7.920;2022-11-18T06:15:23;96080.31;;;7.83;100.00
60874;BME280;46715;40.642;-7.920;2022-11-18T06:17:29;96079.47;;;7.73;100.00
60874;BME280;46715;40.642;-7.920;2022-11-18T06:19:33;96083.31;;;7.60;100.00
60874;BME280;46715;40.642;-7.920;2022-11-18T06:21:34;96075.97;;;7.46;100.00
60874;BME280;46715;40.642;-7.920;2022-11-18T06:23:36;96086.34;;;7.41;100.00
60874;BME280;46715;40.642;-7.920;2022-11-18T06:25:39;96096.13;;;7.34;100.00
60874;BME280;46715;40.642;-7.920;2022-11-18T06:27:41;96092.19;;;7.26;100.00
60874;BME280;46715;40.642;-7.920;2022-11-18T06:29:42;96098.13;;;7.22;100.00
60874;BME280;46715;40.642;-7.920;2022-11-18T06:31:43;96098.09;;;7.16;100.00
60874;BME280;46715;40.642;-7.920;2022-11-18T06:33:43;96098.81;;;7.12;100.00
60874;BME280;46715;40.642;-7.920;2022-11-18T06:35:44;96102.41;;;7.06;100.00
60874;BME280;46715;40.642;-7.920;2022-11-18T06:37:45;96102.38;;;7.00;100.00
60874;BME280;46715;40.642;-7.920;2022-11-18T06:39:46;96114.56;;;7.00;100.00
60874;BME280;46715;40.642;-7.920;2022-11-18T06:41:47;96110.41;;;6.99;100.00
60874;BME280;46715;40.642;-7.920;2022-11-18T06:43:48;96111.41;;;6.98;100.00
60874;BME280;46715;40.642;-7.920;2022-11-18T06:45:48;96118.72;;;7.01;100.00
60874;BME280;46715;40.642;-7.920;2022-11-18T06:48:09;96123.66;;;7.03;100.00
60874;BME280;46715;40.642;-7.920;2022-11-18T06:50:10;96128.09;;;7.07;100.00
60874;BME280;46715;40.642;-7.920;2022-11-18T06:52:12;96132.81;;;7.15;100.00
60874;BME280;46715;40.642;-7.920;2022-11-18T06:54:13;96135.47;;;7.21;100.00
60874;BME280;46715;40.642;-7.920;2022-11-18T06:56:14;96142.00;;;7.28;100.00
60874;BME280;46715;40.642;-7.920;2022-11-18T06:58:15;96136.06;;;7.33;100.00
60874;BME280;46715;40.642;-7.920;2022-11-18T07:00:17;96140.25;;;7.39;100.00
60874;BME280;46715;40.642;-7.920;2022-11-18T07:02:17;96159.59;;;7.59;100.00
60874;BME280;46715;40.642;-7.920;2022-11-18T07:04:19;96174.47;;;7.74;100.00
60874;BME280;46715;40.642;-7.920;2022-11-18T07:06:22;96174.47;;;7.74;100.00
60874;BME280;46715;40.642;-7.920;2022-11-18T07:08:23;96183.59;;;7.76;100.00
60874;BME280;46715;40.642;-7.920;2022-11-18T07:10:24;96183.84;;;7.80;100.00
60874;BME280;46715;40.642;-7.920;2022-11-18T07:12:25;96177.59;;;7.76;100.00
60874;BME280;46715;40.642;-7.920;2022-11-18T07:14:26;96176.88;;;7.80;100.00
60874;BME280;46715;40.642;-7.920;2022-11-18T07:16:27;96178.66;;;7.75;100.00
60874;BME280;46715;40.642;-7.920;2022-11-18T07:18:30;96182.06;;;7.80;100.00
60874;BME280;46715;40.642;-7.920;2022-11-18T07:20:31;96178.66;;;7.80;100.00
60874;BME280;46715;40.642;-7.920;2022-11-18T07:22:31;96178.66;;;7.80;100.00
60874;BME280;46715;40.642;-7.920;2022-11-18T07:24:32;96182.78;;;7.76;100.00
60874;BME280;46715;40.642;-7.920;2022-11-18T07:26:34;96185.94;;;7.78;100.00
60874;BME280;46715;40.642;-7.920;2022-11-18T07:28:36;96183.34;;;7.78;100.00
60874;BME280;46715;40.642;-7.920;2022-11-18T07:30:36;96190.31;;;7.77;100.00
60874;BME280;46715;40.642;-7.920;2022-11-18T07:32:37;96183.84;;;7.80;100.00
60874;BME280;46715;40.642;-7.920;2022-11-18T07:34:38;96202.81;;;7.80;100.00
60874;BME280;46715;40.642;-7.920;2022-11-18T07:36:39;96199.94;;;7.77;100.00
60874;BME280;46715;40.642;-7.920;2022-11-18T07:38:40;96200.94;;;7.71;100.00
60874;BME280;46715;40.642;-7.920;2022-11-18T07:40:41;96198.59;;;7.69;100.00
60874;BME280;46715;40.642;-7.920;2022-11-18T07:42:42;96208.47;;;7.72;100.00
60874;BME280;46715;40.642;-7.920;2022-11-18T07:44:56;96218.41;;;7.80;100.00
60874;BME280;46715;40.642;-7.920;2022-11-18T07:46:56;96216.31;;;7.82;100.00
60874;BME280;46715;40.642;-7.920;2022-11-18T07:48:59;96215.81;;;7.85;100.00
60874;BME280;46715;40.642;-7.920;2022-11-18T07:51:00;96221.03;;;7.91;100.00
60874;BME280;46715;40.642;-7.920;2022-11-18T07:53:01;96222.09;;;7.95;100.00
60874;BME280;46715;40.642;-7.920;2022-11-18T07:55:02;96228.91;;;8.01;100.00
60874;BME280;46715;40.642;-7.920;2022-11-18T07:57:03;96232.06;;;8.13;100.00
60874;BME280;46715;40.642;-7.920;2022-11-18T07:59:04;96239.22;;;8.33;100.00
60874;BME280;46715;40.642;-7.920;2022-11-18T08:01:08;96246.09;;;8.55;100.00
60874;BME280;46715;40.642;-7.920;2022-11-18T08:03:09;96242.09;;;9.11;100.00
60874;BME280;46715;40.642;-7.920;2022-11-18T08:05:10;96246.81;;;9.76;100.00
60874;BME280;46715;40.642;-7.920;2022-11-18T08:07:11;96240.09;;;10.76;100.00
60874;BME280;46715;40.642;-7.920;2022-11-18T08:09:12;96249.34;;;11.77;94.57
60874;BME280;46715;40.642;-7.920;2022-11-18T08:11:15;96254.50;;;11.87;91.44
60874;BME280;46715;40.642;-7.920;2022-11-18T08:13:16;96254.56;;;11.03;93.73
60874;BME280;46715;40.642;-7.920;2022-11-18T08:15:17;96258.16;;;10.62;95.75
60874;BME280;46715;40.642;-7.920;2022-11-18T08:17:18;96267.38;;;10.08;98.05
60874;BME280;46715;40.642;-7.920;2022-11-18T08:19:19;96258.03;;;9.55;100.00
60874;BME280;46715;40.642;-7.920;2022-11-18T08:21:21;96270.50;;;9.28;100.00
60874;BME280;46715;40.642;-7.920;2022-11-18T08:23:22;96276.16;;;9.09;100.00
60874;BME280;46715;40.642;-7.920;2022-11-18T08:25:23;96277.47;;;9.07;100.00
60874;BME280;46715;40.642;-7.920;2022-11-18T08:27:23;96277.81;;;9.72;100.00
60874;BME280;46715;40.642;-7.920;2022-11-18T08:29:24;96286.13;;;10.36;97.53
60874;BME280;46715;40.642;-7.920;2022-11-18T08:31:26;96278.47;;;10.65;94.20
60874;BME280;46715;40.642;-7.920;2022-11-18T08:33:27;96284.66;;;11.35;89.84
60874;BME280;46715;40.642;-7.920;2022-11-18T08:35:29;96283.53;;;11.81;86.34
60874;BME280;46715;40.642;-7.920;2022-11-18T08:37:30;96281.66;;;11.86;85.21
60874;BME280;46715;40.642;-7.920;2022-11-18T08:39:31;96285.72;;;12.32;83.95
60874;BME280;46715;40.642;-7.920;2022-11-18T08:41:35;96285.19;;;12.59;82.59
60874;BME280;46715;40.642;-7.920;2022-11-18T08:43:36;96289.75;;;12.49;81.90
60874;BME280;46715;40.642;-7.920;2022-11-18T08:45:38;96297.84;;;12.23;82.71
60874;BME280;46715;40.642;-7.920;2022-11-18T08:47:39;96292.00;;;12.60;82.27
60874;BME280;46715;40.642;-7.920;2022-11-18T08:49:40;96294.53;;;13.52;72.83
60874;BME280;46715;40.642;-7.920;2022-11-18T08:51:41;96291.47;;;14.58;70.42
60874;BME280;46715;40.642;-7.920;2022-11-18T08:53:42;96292.56;;;15.58;67.18
60874;BME280;46715;40.642;-7.920;2022-11-18T08:55:42;96284.59;;;16.48;64.31
60874;BME280;46715;40.642;-7.920;2022-11-18T08:57:43;96289.00;;;17.28;62.05
60874;BME280;46715;40.642;-7.920;2022-11-18T08:59:44;96296.13;;;17.54;59.39
60874;BME280;46715;40.642;-7.920;2022-11-18T09:01:45;96298.75;;;17.10;60.29
60874;BME280;46715;40.642;-7.920;2022-11-18T09:03:46;96307.97;;;16.18;63.19
60874;BME280;46715;40.642;-7.920;2022-11-18T09:05:48;96319.63;;;15.22;66.20
60874;BME280;46715;40.642;-7.920;2022-11-18T09:07:50;96321.69;;;14.08;69.05
60874;BME280;46715;40.642;-7.920;2022-11-18T09:09:51;96322.44;;;13.19;72.59
60874;BME280;46715;40.642;-7.920;2022-11-18T09:11:52;96330.34;;;12.41;77.81
60874;BME280;46715;40.642;-7.920;2022-11-18T09:13:54;96324.19;;;12.02;80.92
60874;BME280;46715;40.642;-7.920;2022-11-18T09:15:58;96331.97;;;11.68;83.22
60874;BME280;46715;40.642;-7.920;2022-11-18T09:17:59;96330.22;;;11.53;85.90
60874;BME280;46715;40.642;-7.920;2022-11-18T09:20:00;96339.56;;;11.14;86.70
60874;BME280;46715;40.642;-7.920;2022-11-18T09:22:02;96335.94;;;11.05;87.33
60874;BME280;46715;40.642;-7.920;2022-11-18T09:24:03;96333.94;;;10.86;89.40
60874;BME280;46715;40.642;-7.920;2022-11-18T09:26:07;96336.81;;;10.80;86.77
60874;BME280;46715;40.642;-7.920;2022-11-18T09:28:08;96347.84;;;10.61;88.41
60874;BME280;46715;40.642;-7.920;2022-11-18T09:30:09;96344.50;;;10.40;91.36
60874;BME280;46715;40.642;-7.920;2022-11-18T09:32:10;96344.22;;;10.16;91.47
60874;BME280;46715;40.642;-7.920;2022-11-18T09:34:17;96346.84;;;10.05;93.71
60874;BME280;46715;40.642;-7.920;2022-11-18T09:36:20;96354.66;;;10.11;93.27
60874;BME280;46715;40.642;-7.920;2022-11-18T09:38:22;96351.50;;;10.09;95.33
60874;BME280;46715;40.642;-7.920;2022-11-18T09:40:22;96358.81;;;10.22;92.27
60874;BME280;46715;40.642;-7.920;2022-11-18T09:49:29;96362.19;;;10.53;95.07
60874;BME280;46715;40.642;-7.920;2022-11-18T09:51:35;96366.13;;;10.46;97.10
60874;BME280;46715;40.642;-7.920;2022-11-18T09:53:43;96366.38;;;10.44;94.14
60874;BME280;46715;40.642;-7.920;2022-11-18T09:55:44;96365.34;;;10.40;94.76
60874;BME280;46715;40.642;-7.920;2022-11-18T09:57:49;96366.88;;;10.46;91.05
60874;BME280;46715;40.642;-7.920;2022-11-18T09:59:51;96372.38;;;10.55;92.80
60874;BME280;46715;40.642;-7.920;2022-11-18T10:01:56;96369.47;;;10.62;87.63
60874;BME280;46715;40.642;-7.920;2022-11-18T10:03:57;96366.59;;;10.68;90.54
60874;BME280;46715;40.642;-7.920;2022-11-18T10:08:27;96366.56;;;10.84;86.54
60874;BME280;46715;40.642;-7.920;2022-11-18T10:12:51;96364.75;;;10.84;82.98
60874;BME280;46715;40.642;-7.920;2022-11-18T10:24:01;96380.50;;;11.74;79.02
60874;BME280;46715;40.642;-7.920;2022-11-18T10:26:05;96393.78;;;11.83;79.21
60874;BME280;46715;40.642;-7.920;2022-11-18T10:28:27;96384.88;;;11.94;76.04
60874;BME280;46715;40.642;-7.920;2022-11-18T10:30:31;96393.53;;;11.84;76.24
60874;BME280;46715;40.642;-7.920;2022-11-18T10:32:32;96396.28;;;11.58;79.55
60874;BME280;46715;40.642;-7.920;2022-11-18T10:34:46;96401.41;;;11.19;76.20
60874;BME280;46715;40.642;-7.920;2022-11-18T10:37:05;96402.47;;;11.18;80.39
60874;BME280;46715;40.642;-7.920;2022-11-18T10:39:12;96398.34;;;11.06;80.56
60874;BME280;46715;40.642;-7.920;2022-11-18T10:41:16;96399.22;;;11.41;79.11
60874;BME280;46715;40.642;-7.920;2022-11-18T10:45:48;96395.94;;;11.20;77.61
60874;BME280;46715;40.642;-7.920;2022-11-18T10:50:45;96398.56;;;11.10;81.38
60874;BME280;46715;40.642;-7.920;2022-11-18T10:52:52;96397.53;;;11.11;80.68
60874;BME280;46715;40.642;-7.920;2022-11-18T10:55:19;96394.28;;;11.40;81.28
60874;BME280;46715;40.642;-7.920;2022-11-18T10:57:22;96399.47;;;11.45;78.60
60874;BME280;46715;40.642;-7.920;2022-11-18T10:59:29;96400.81;;;11.37;77.39
60874;BME280;46715;40.642;-7.920;2022-11-18T11:01:31;96395.81;;;11.46;76.71
60874;BME280;46715;40.642;-7.920;2022-11-18T11:03:34;96395.78;;;11.56;79.58
60874;BME280;46715;40.642;-7.920;2022-11-18T11:05:41;96383.28;;;11.88;76.95
60874;BME280;46715;40.642;-7.920;2022-11-18T11:07:42;96397.22;;;11.73;74.36
60874;BME280;46715;40.642;-7.920;2022-11-18T11:09:43;96383.00;;;11.50;75.44
60874;BME280;46715;40.642;-7.920;2022-11-18T11:14:16;96379.25;;;12.11;74.09
60874;BME280;46715;40.642;-7.920;2022-11-18T11:16:19;96382.59;;;12.46;73.69
60874;BME280;46715;40.642;-7.920;2022-11-18T11:18:23;96378.91;;;12.52;73.15
60874;BME280;46715;40.642;-7.920;2022-11-18T11:20:41;96388.50;;;12.33;73.40
60874;BME280;46715;40.642;-7.920;2022-11-18T11:22:43;96374.06;;;12.35;72.96
60874;BME280;46715;40.642;-7.920;2022-11-18T11:24:44;96388.94;;;12.40;71.06
60874;BME280;46715;40.642;-7.920;2022-11-18T11:30:02;96386.44;;;11.85;70.97
60874;BME280;46715;40.642;-7.920;2022-11-18T11:49:21;96385.09;;;11.48;76.83
60874;BME280;46715;40.642;-7.920;2022-11-18T11:51:47;96383.16;;;11.69;74.92
60874;BME280;46715;40.642;-7.920;2022-11-18T11:54:05;96376.19;;;11.54;73.61
60874;BME280;46715;40.642;-7.920;2022-11-18T11:56:39;96375.34;;;11.64;72.49
60874;BME280;46715;40.642;-7.920;2022-11-18T12:05:30;96370.03;;;11.29;75.68